sensor_id;sensor_type;location;lat;lon;timestamp;P1;durP1;ratioP1;P2;durP2;ratioP2
73642;SDS011;61938;48.652;9.292;2023-11-19T00:02:07;9.68;;;5.35;;
73642;SDS011;61938;48.652;9.292;2023-11-19T00:04:33;6.82;;;4.45;;
73642;SDS011;61938;48.652;9.292;2023-11-19T00:07:02;7.10;;;4.32;;
73642;SDS011;61938;48.652;9.292;2023-11-19T00:09:29;8.52;;;4.88;;
73642;SDS011;61938;48.652;9.292;2023-11-19T00:11:55;6.93;;;4.05;;
73642;SDS011;61938;48.652;9.292;2023-11-19T00:14:20;8.80;;;4.05;;
73642;SDS011;61938;48.652;9.292;2023-11-19T00:16:46;6.93;;;4.07;;
73642;SDS011;61938;48.652;9.292;2023-11-19T00:19:11;7.50;;;4.25;;
73642;SDS011;61938;48.652;9.292;2023-11-19T00:21:37;5.32;;;3.40;;
73642;SDS011;61938;48.652;9.292;2023-11-19T00:24:03;7.93;;;4.00;;
73642;SDS011;61938;48.652;9.292;2023-11-19T00:26:29;7.00;;;3.22;;
73642;SDS011;61938;48.652;9.292;2023-11-19T00:28:55;8.00;;;3.30;;
73642;SDS011;61938;48.652;9.292;2023-11-19T00:31:21;7.93;;;3.30;;
73642;SDS011;61938;48.652;9.292;2023-11-19T00:33:46;6.65;;;3.72;;
73642;SDS011;61938;48.652;9.292;2023-11-19T00:36:12;6.40;;;3.28;;
73642;SDS011;61938;48.652;9.292;2023-11-19T00:38:38;6.78;;;3.63;;
73642;SDS011;61938;48.652;9.292;2023-11-19T00:41:03;5.72;;;3.47;;
73642;SDS011;61938;48.652;9.292;2023-11-19T00:43:29;5.40;;;3.47;;
73642;SDS011;61938;48.652;9.292;2023-11-19T00:45:54;6.60;;;3.35;;
73642;SDS011;61938;48.652;9.292;2023-11-19T00:48:20;5.47;;;3.35;;
73642;SDS011;61938;48.652;9.292;2023-11-19T00:50:45;5.15;;;3.05;;
73642;SDS011;61938;48.652;9.292;2023-11-19T00:53:11;4.45;;;2.65;;
73642;SDS011;61938;48.652;9.292;2023-11-19T00:55:37;8.43;;;3.45;;
73642;SDS011;61938;48.652;9.292;2023-11-19T00:58:02;4.07;;;2.70;;
73642;SDS011;61938;48.652;9.292;2023-11-19T01:00:28;4.40;;;2.72;;
73642;SDS011;61938;48.652;9.292;2023-11-19T01:02:53;4.63;;;2.67;;
73642;SDS011;61938;48.652;9.292;2023-11-19T01:05:20;3.55;;;2.20;;
73642;SDS011;61938;48.652;9.292;2023-11-19T01:07:47;9.93;;;2.65;;
73642;SDS011;61938;48.652;9.292;2023-11-19T01:10:12;3.83;;;1.98;;
73642;SDS011;61938;48.652;9.292;2023-11-19T01:12:38;4.45;;;2.15;;
73642;SDS011;61938;48.652;9.292;2023-11-19T01:15:04;3.08;;;2.10;;
73642;SDS011;61938;48.652;9.292;2023-11-19T01:17:31;5.28;;;2.63;;
73642;SDS011;61938;48.652;9.292;2023-11-19T01:19:56;3.42;;;2.13;;
73642;SDS011;61938;48.652;9.292;2023-11-19T01:22:22;3.67;;;2.03;;
73642;SDS011;61938;48.652;9.292;2023-11-19T01:24:48;5.38;;;2.10;;
73642;SDS011;61938;48.652;9.292;2023-11-19T01:27:13;4.10;;;2.22;;
73642;SDS011;61938;48.652;9.292;2023-11-19T01:29:39;3.38;;;2.10;;
73642;SDS011;61938;48.652;9.292;2023-11-19T01:32:05;4.05;;;1.88;;
73642;SDS011;61938;48.652;9.292;2023-11-19T01:34:31;5.68;;;2.58;;
73642;SDS011;61938;48.652;9.292;2023-11-19T01:36:57;4.45;;;2.45;;
73642;SDS011;61938;48.652;9.292;2023-11-19T01:39:22;3.53;;;2.08;;
73642;SDS011;61938;48.652;9.292;2023-11-19T01:41:48;5.32;;;2.25;;
73642;SDS011;61938;48.652;9.292;2023-11-19T01:44:13;4.32;;;1.92;;
73642;SDS011;61938;48.652;9.292;2023-11-19T01:46:42;2.90;;;1.92;;
73642;SDS011;61938;48.652;9.292;2023-11-19T01:49:12;3.40;;;2.05;;
73642;SDS011;61938;48.652;9.292;2023-11-19T01:51:40;3.47;;;1.98;;
73642;SDS011;61938;48.652;9.292;2023-11-19T01:54:06;2.67;;;1.65;;
73642;SDS011;61938;48.652;9.292;2023-11-19T01:56:32;5.20;;;1.95;;
73642;SDS011;61938;48.652;9.292;2023-11-19T01:58:59;2.83;;;1.92;;
73642;SDS011;61938;48.652;9.292;2023-11-19T02:01:25;2.55;;;1.63;;
73642;SDS011;61938;48.652;9.292;2023-11-19T02:03:51;2.90;;;1.92;;
73642;SDS011;61938;48.652;9.292;2023-11-19T02:06:17;2.35;;;1.83;;
73642;SDS011;61938;48.652;9.292;2023-11-19T02:08:43;3.22;;;1.55;;
73642;SDS011;61938;48.652;9.292;2023-11-19T02:11:08;2.72;;;1.77;;
73642;SDS011;61938;48.652;9.292;2023-11-19T02:13:34;3.05;;;1.92;;
73642;SDS011;61938;48.652;9.292;2023-11-19T02:16:02;3.42;;;2.00;;
73642;SDS011;61938;48.652;9.292;2023-11-19T02:18:28;2.28;;;1.40;;
73642;SDS011;61938;48.652;9.292;2023-11-19T02:20:57;3.33;;;1.63;;
73642;SDS011;61938;48.652;9.292;2023-11-19T02:23:24;4.32;;;1.70;;
73642;SDS011;61938;48.652;9.292;2023-11-19T02:28:52;2.75;;;1.55;;
73642;SDS011;61938;48.652;9.292;2023-11-19T02:31:17;3.30;;;1.65;;
73642;SDS011;61938;48.652;9.292;2023-11-19T02:33:44;1.67;;;1.38;;
73642;SDS011;61938;48.652;9.292;2023-11-19T02:36:09;2.90;;;1.65;;
73642;SDS011;61938;48.652;9.292;2023-11-19T02:38:35;2.97;;;1.67;;
73642;SDS011;61938;48.652;9.292;2023-11-19T02:41:04;4.30;;;1.50;;
73642;SDS011;61938;48.652;9.292;2023-11-19T02:43:34;1.50;;;1.17;;
73642;SDS011;61938;48.652;9.292;2023-11-19T02:46:03;4.25;;;1.35;;
73642;SDS011;61938;48.652;9.292;2023-11-19T02:48:32;3.42;;;1.38;;
73642;SDS011;61938;48.652;9.292;2023-11-19T02:51:00;1.70;;;1.27;;
73642;SDS011;61938;48.652;9.292;2023-11-19T02:53:28;1.60;;;1.20;;
73642;SDS011;61938;48.652;9.292;2023-11-19T02:55:54;2.50;;;1.08;;
73642;SDS011;61938;48.652;9.292;2023-11-19T02:58:26;2.63;;;1.23;;
73642;SDS011;61938;48.652;9.292;2023-11-19T03:00:53;1.98;;;1.10;;
73642;SDS011;61938;48.652;9.292;2023-11-19T03:03:25;2.17;;;0.85;;
73642;SDS011;61938;48.652;9.292;2023-11-19T03:05:56;1.67;;;1.00;;
73642;SDS011;61938;48.652;9.292;2023-11-19T03:08:22;2.40;;;1.17;;
73642;SDS011;61938;48.652;9.292;2023-11-19T03:10:47;2.28;;;1.05;;
73642;SDS011;61938;48.652;9.292;2023-11-19T03:13:13;0.90;;;0.50;;
73642;SDS011;61938;48.652;9.292;2023-11-19T03:15:39;1.50;;;0.90;;
73642;SDS011;61938;48.652;9.292;2023-11-19T03:18:05;0.80;;;0.70;;
73642;SDS011;61938;48.652;9.292;2023-11-19T03:20:31;1.58;;;0.77;;
73642;SDS011;61938;48.652;9.292;2023-11-19T03:22:57;1.17;;;0.70;;
73642;SDS011;61938;48.652;9.292;2023-11-19T03:25:26;1.00;;;0.80;;
73642;SDS011;61938;48.652;9.292;2023-11-19T03:27:58;1.15;;;0.80;;
73642;SDS011;61938;48.652;9.292;2023-11-19T03:30:24;1.40;;;0.77;;
73642;SDS011;61938;48.652;9.292;2023-11-19T03:32:49;1.08;;;0.70;;
73642;SDS011;61938;48.652;9.292;2023-11-19T03:35:15;1.67;;;0.90;;
73642;SDS011;61938;48.652;9.292;2023-11-19T03:37:41;0.82;;;0.60;;
73642;SDS011;61938;48.652;9.292;2023-11-19T03:40:06;1.55;;;1.30;;
73642;SDS011;61938;48.652;9.292;2023-11-19T03:42:32;0.93;;;0.70;;
73642;SDS011;61938;48.652;9.292;2023-11-19T03:44:58;1.20;;;0.60;;
73642;SDS011;61938;48.652;9.292;2023-11-19T03:47:24;1.35;;;0.52;;
73642;SDS011;61938;48.652;9.292;2023-11-19T03:49:50;1.58;;;0.60;;
73642;SDS011;61938;48.652;9.292;2023-11-19T03:52:16;0.77;;;0.60;;
73642;SDS011;61938;48.652;9.292;2023-11-19T03:54:42;1.15;;;0.60;;
73642;SDS011;61938;48.652;9.292;2023-11-19T03:57:08;1.20;;;0.75;;
73642;SDS011;61938;48.652;9.292;2023-11-19T03:59:35;5.07;;;0.70;;
73642;SDS011;61938;48.652;9.292;2023-11-19T04:02:01;1.83;;;0.70;;
73642;SDS011;61938;48.652;9.292;2023-11-19T04:04:27;0.90;;;0.45;;
73642;SDS011;61938;48.652;9.292;2023-11-19T04:06:54;1.10;;;0.57;;
73642;SDS011;61938;48.652;9.292;2023-11-19T04:09:20;0.90;;;0.60;;
73642;SDS011;61938;48.652;9.292;2023-11-19T04:11:45;1.50;;;0.70;;
73642;SDS011;61938;48.652;9.292;2023-11-19T04:14:14;1.80;;;0.70;;
73642;SDS011;61938;48.652;9.292;2023-11-19T04:16:42;1.55;;;0.90;;
73642;SDS011;61938;48.652;9.292;2023-11-19T04:19:08;3.38;;;1.23;;
73642;SDS011;61938;48.652;9.292;2023-11-19T04:21:34;3.53;;;1.05;;
73642;SDS011;61938;48.652;9.292;2023-11-19T04:24:00;1.33;;;0.73;;
73642;SDS011;61938;48.652;9.292;2023-11-19T04:26:25;1.10;;;0.75;;
73642;SDS011;61938;48.652;9.292;2023-11-19T04:28:51;1.10;;;0.60;;
73642;SDS011;61938;48.652;9.292;2023-11-19T04:31:16;1.02;;;0.57;;
73642;SDS011;61938;48.652;9.292;2023-11-19T04:33:42;1.40;;;0.70;;
73642;SDS011;61938;48.652;9.292;2023-11-19T04:36:08;0.47;;;0.47;;
73642;SDS011;61938;48.652;9.292;2023-11-19T04:38:34;1.23;;;0.68;;
73642;SDS011;61938;48.652;9.292;2023-11-19T04:41:00;1.15;;;0.65;;
73642;SDS011;61938;48.652;9.292;2023-11-19T04:43:25;1.77;;;0.80;;
73642;SDS011;61938;48.652;9.292;2023-11-19T04:45:51;1.67;;;0.57;;
73642;SDS011;61938;48.652;9.292;2023-11-19T04:48:16;0.93;;;0.47;;
73642;SDS011;61938;48.652;9.292;2023-11-19T04:50:42;2.17;;;0.47;;
73642;SDS011;61938;48.652;9.292;2023-11-19T04:53:08;0.93;;;0.50;;
73642;SDS011;61938;48.652;9.292;2023-11-19T04:55:33;0.65;;;0.40;;
73642;SDS011;61938;48.652;9.292;2023-11-19T04:57:59;2.03;;;0.70;;
73642;SDS011;61938;48.652;9.292;2023-11-19T05:00:24;2.03;;;0.73;;
73642;SDS011;61938;48.652;9.292;2023-11-19T05:02:50;0.32;;;0.32;;
73642;SDS011;61938;48.652;9.292;2023-11-19T05:05:16;0.80;;;0.50;;
73642;SDS011;61938;48.652;9.292;2023-11-19T05:07:42;1.38;;;0.95;;
73642;SDS011;61938;48.652;9.292;2023-11-19T05:10:08;0.60;;;0.50;;
73642;SDS011;61938;48.652;9.292;2023-11-19T05:12:33;2.15;;;0.50;;
73642;SDS011;61938;48.652;9.292;2023-11-19T05:14:59;2.13;;;0.50;;
73642;SDS011;61938;48.652;9.292;2023-11-19T05:17:25;0.60;;;0.32;;
73642;SDS011;61938;48.652;9.292;2023-11-19T05:19:51;1.25;;;0.50;;
73642;SDS011;61938;48.652;9.292;2023-11-19T05:22:16;1.20;;;0.40;;
73642;SDS011;61938;48.652;9.292;2023-11-19T05:24:42;1.17;;;0.47;;
73642;SDS011;61938;48.652;9.292;2023-11-19T05:27:08;1.17;;;0.38;;
73642;SDS011;61938;48.652;9.292;2023-11-19T05:29:33;0.47;;;0.40;;
73642;SDS011;61938;48.652;9.292;2023-11-19T05:31:59;1.42;;;0.60;;
73642;SDS011;61938;48.652;9.292;2023-11-19T05:34:25;0.73;;;0.47;;
73642;SDS011;61938;48.652;9.292;2023-11-19T05:36:51;0.70;;;0.35;;
73642;SDS011;61938;48.652;9.292;2023-11-19T05:39:16;0.60;;;0.50;;
73642;SDS011;61938;48.652;9.292;2023-11-19T05:41:45;2.95;;;0.50;;
73642;SDS011;61938;48.652;9.292;2023-11-19T05:44:11;0.50;;;0.35;;
73642;SDS011;61938;48.652;9.292;2023-11-19T05:46:36;5.10;;;0.43;;
73642;SDS011;61938;48.652;9.292;2023-11-19T05:49:05;0.40;;;0.30;;
73642;SDS011;61938;48.652;9.292;2023-11-19T05:51:30;0.73;;;0.35;;
73642;SDS011;61938;48.652;9.292;2023-11-19T05:53:56;2.15;;;0.40;;
73642;SDS011;61938;48.652;9.292;2023-11-19T05:56:22;3.15;;;0.60;;
73642;SDS011;61938;48.652;9.292;2023-11-19T05:58:48;1.67;;;0.50;;
73642;SDS011;61938;48.652;9.292;2023-11-19T06:01:16;1.48;;;0.47;;
73642;SDS011;61938;48.652;9.292;2023-11-19T06:03:42;1.23;;;0.50;;
73642;SDS011;61938;48.652;9.292;2023-11-19T06:06:08;0.55;;;0.38;;
73642;SDS011;61938;48.652;9.292;2023-11-19T06:08:34;1.13;;;0.30;;
73642;SDS011;61938;48.652;9.292;2023-11-19T06:11:02;1.33;;;0.60;;
73642;SDS011;61938;48.652;9.292;2023-11-19T06:13:28;0.82;;;0.43;;
73642;SDS011;61938;48.652;9.292;2023-11-19T06:15:55;1.05;;;0.52;;
73642;SDS011;61938;48.652;9.292;2023-11-19T06:18:21;0.85;;;0.40;;
73642;SDS011;61938;48.652;9.292;2023-11-19T06:20:48;2.15;;;0.68;;
73642;SDS011;61938;48.652;9.292;2023-11-19T06:23:14;0.73;;;0.35;;
73642;SDS011;61938;48.652;9.292;2023-11-19T06:25:40;0.47;;;0.20;;
73642;SDS011;61938;48.652;9.292;2023-11-19T06:28:06;2.13;;;0.95;;
73642;SDS011;61938;48.652;9.292;2023-11-19T06:30:31;2.95;;;0.32;;
73642;SDS011;61938;48.652;9.292;2023-11-19T06:32:57;0.47;;;0.30;;
73642;SDS011;61938;48.652;9.292;2023-11-19T06:35:23;3.30;;;0.20;;
73642;SDS011;61938;48.652;9.292;2023-11-19T06:37:49;0.73;;;0.40;;
73642;SDS011;61938;48.652;9.292;2023-11-19T06:40:14;0.70;;;0.47;;
73642;SDS011;61938;48.652;9.292;2023-11-19T06:42:41;0.65;;;0.40;;
73642;SDS011;61938;48.652;9.292;2023-11-19T06:45:07;0.75;;;0.30;;
73642;SDS011;61938;48.652;9.292;2023-11-19T06:47:32;0.47;;;0.35;;
73642;SDS011;61938;48.652;9.292;2023-11-19T06:49:58;0.90;;;0.50;;
73642;SDS011;61938;48.652;9.292;2023-11-19T06:52:24;1.67;;;0.40;;
73642;SDS011;61938;48.652;9.292;2023-11-19T06:54:49;0.57;;;0.38;;
73642;SDS011;61938;48.652;9.292;2023-11-19T06:57:15;0.55;;;0.35;;
73642;SDS011;61938;48.652;9.292;2023-11-19T06:59:41;0.73;;;0.50;;
73642;SDS011;61938;48.652;9.292;2023-11-19T07:02:07;2.55;;;0.40;;
73642;SDS011;61938;48.652;9.292;2023-11-19T07:04:36;3.67;;;0.63;;
73642;SDS011;61938;48.652;9.292;2023-11-19T07:07:02;1.88;;;0.40;;
73642;SDS011;61938;48.652;9.292;2023-11-19T07:09:27;0.40;;;0.17;;
73642;SDS011;61938;48.652;9.292;2023-11-19T07:11:53;2.67;;;0.40;;
73642;SDS011;61938;48.652;9.292;2023-11-19T07:14:19;0.55;;;0.45;;
73642;SDS011;61938;48.652;9.292;2023-11-19T07:16:45;0.40;;;0.32;;
73642;SDS011;61938;48.652;9.292;2023-11-19T07:19:15;0.50;;;0.43;;
73642;SDS011;61938;48.652;9.292;2023-11-19T07:21:41;0.52;;;0.40;;
73642;SDS011;61938;48.652;9.292;2023-11-19T07:24:09;0.77;;;0.50;;
73642;SDS011;61938;48.652;9.292;2023-11-19T07:26:45;1.10;;;0.75;;
73642;SDS011;61938;48.652;9.292;2023-11-19T07:29:12;1.60;;;0.50;;
73642;SDS011;61938;48.652;9.292;2023-11-19T07:31:38;0.93;;;0.40;;
73642;SDS011;61938;48.652;9.292;2023-11-19T07:34:04;0.70;;;0.35;;
73642;SDS011;61938;48.652;9.292;2023-11-19T07:36:31;0.47;;;0.40;;
73642;SDS011;61938;48.652;9.292;2023-11-19T07:39:00;1.80;;;0.80;;
73642;SDS011;61938;48.652;9.292;2023-11-19T07:41:25;5.18;;;0.60;;
73642;SDS011;61938;48.652;9.292;2023-11-19T07:43:51;0.90;;;0.60;;
73642;SDS011;61938;48.652;9.292;2023-11-19T07:46:17;0.77;;;0.50;;
73642;SDS011;61938;48.652;9.292;2023-11-19T07:48:44;1.08;;;0.60;;
73642;SDS011;61938;48.652;9.292;2023-11-19T07:51:12;0.75;;;0.50;;
73642;SDS011;61938;48.652;9.292;2023-11-19T07:53:38;1.48;;;0.73;;
73642;SDS011;61938;48.652;9.292;2023-11-19T07:56:04;2.80;;;0.55;;
73642;SDS011;61938;48.652;9.292;2023-11-19T07:58:30;1.20;;;0.60;;
73642;SDS011;61938;48.652;9.292;2023-11-19T08:00:56;4.18;;;0.50;;
73642;SDS011;61938;48.652;9.292;2023-11-19T08:03:22;1.02;;;0.40;;
73642;SDS011;61938;48.652;9.292;2023-11-19T08:05:47;0.50;;;0.35;;
73642;SDS011;61938;48.652;9.292;2023-11-19T08:08:13;0.88;;;0.43;;
73642;SDS011;61938;48.652;9.292;2023-11-19T08:10:39;1.52;;;0.40;;
73642;SDS011;61938;48.652;9.292;2023-11-19T08:13:05;0.60;;;0.40;;
73642;SDS011;61938;48.652;9.292;2023-11-19T08:15:31;1.77;;;0.40;;
73642;SDS011;61938;48.652;9.292;2023-11-19T08:17:56;0.77;;;0.45;;
73642;SDS011;61938;48.652;9.292;2023-11-19T08:20:22;1.08;;;0.50;;
73642;SDS011;61938;48.652;9.292;2023-11-19T08:22:48;0.70;;;0.43;;
73642;SDS011;61938;48.652;9.292;2023-11-19T08:25:14;2.25;;;0.30;;
73642;SDS011;61938;48.652;9.292;2023-11-19T08:27:40;3.90;;;0.70;;
73642;SDS011;61938;48.652;9.292;2023-11-19T08:30:05;0.45;;;0.30;;
73642;SDS011;61938;48.652;9.292;2023-11-19T08:32:31;0.90;;;0.60;;
73642;SDS011;61938;48.652;9.292;2023-11-19T08:34:57;1.63;;;0.50;;
73642;SDS011;61938;48.652;9.292;2023-11-19T08:37:23;1.08;;;0.40;;
73642;SDS011;61938;48.652;9.292;2023-11-19T08:39:49;1.00;;;0.50;;
73642;SDS011;61938;48.652;9.292;2023-11-19T08:42:15;3.78;;;0.60;;
73642;SDS011;61938;48.652;9.292;2023-11-19T08:44:42;0.90;;;0.30;;
73642;SDS011;61938;48.652;9.292;2023-11-19T08:47:09;0.55;;;0.32;;
73642;SDS011;61938;48.652;9.292;2023-11-19T08:49:36;1.45;;;0.68;;
73642;SDS011;61938;48.652;9.292;2023-11-19T08:52:01;2.25;;;0.65;;
73642;SDS011;61938;48.652;9.292;2023-11-19T08:54:27;1.75;;;0.57;;
73642;SDS011;61938;48.652;9.292;2023-11-19T08:56:52;1.70;;;0.55;;
73642;SDS011;61938;48.652;9.292;2023-11-19T08:59:18;1.88;;;0.60;;
73642;SDS011;61938;48.652;9.292;2023-11-19T09:01:44;2.13;;;0.88;;
73642;SDS011;61938;48.652;9.292;2023-11-19T09:04:09;0.80;;;0.40;;
73642;SDS011;61938;48.652;9.292;2023-11-19T09:06:35;0.93;;;0.45;;
73642;SDS011;61938;48.652;9.292;2023-11-19T09:09:01;1.40;;;0.65;;
73642;SDS011;61938;48.652;9.292;2023-11-19T09:11:30;0.70;;;0.50;;
73642;SDS011;61938;48.652;9.292;2023-11-19T09:13:56;1.17;;;0.73;;
73642;SDS011;61938;48.652;9.292;2023-11-19T09:16:22;1.00;;;0.60;;
73642;SDS011;61938;48.652;9.292;2023-11-19T09:18:48;1.55;;;0.88;;
73642;SDS011;61938;48.652;9.292;2023-11-19T09:21:13;1.00;;;0.50;;
73642;SDS011;61938;48.652;9.292;2023-11-19T09:23:39;1.05;;;0.65;;
73642;SDS011;61938;48.652;9.292;2023-11-19T09:26:05;1.00;;;0.63;;
73642;SDS011;61938;48.652;9.292;2023-11-19T09:28:33;1.67;;;0.52;;
73642;SDS011;61938;48.652;9.292;2023-11-19T09:30:58;6.07;;;0.80;;
73642;SDS011;61938;48.652;9.292;2023-11-19T09:33:24;5.35;;;0.65;;
73642;SDS011;61938;48.652;9.292;2023-11-19T09:35:49;1.25;;;0.63;;
73642;SDS011;61938;48.652;9.292;2023-11-19T09:38:16;2.20;;;0.73;;
73642;SDS011;61938;48.652;9.292;2023-11-19T09:40:42;0.77;;;0.60;;
73642;SDS011;61938;48.652;9.292;2023-11-19T09:43:07;3.00;;;0.63;;
73642;SDS011;61938;48.652;9.292;2023-11-19T09:45:39;1.02;;;0.55;;
73642;SDS011;61938;48.652;9.292;2023-11-19T09:48:18;1.33;;;0.73;;
73642;SDS011;61938;48.652;9.292;2023-11-19T09:50:45;3.25;;;0.70;;
73642;SDS011;61938;48.652;9.292;2023-11-19T09:53:12;1.08;;;0.60;;
73642;SDS011;61938;48.652;9.292;2023-11-19T09:55:38;1.10;;;0.47;;
73642;SDS011;61938;48.652;9.292;2023-11-19T09:58:04;0.95;;;0.57;;
73642;SDS011;61938;48.652;9.292;2023-11-19T10:00:31;2.47;;;0.70;;
73642;SDS011;61938;48.652;9.292;2023-11-19T10:02:58;1.40;;;0.60;;
73642;SDS011;61938;48.652;9.292;2023-11-19T10:05:25;1.88;;;0.60;;
73642;SDS011;61938;48.652;9.292;2023-11-19T10:07:51;0.73;;;0.50;;
73642;SDS011;61938;48.652;9.292;2023-11-19T10:10:17;1.33;;;0.55;;
73642;SDS011;61938;48.652;9.292;2023-11-19T10:12:47;2.03;;;0.80;;
73642;SDS011;61938;48.652;9.292;2023-11-19T10:15:23;1.27;;;0.70;;
73642;SDS011;61938;48.652;9.292;2023-11-19T10:17:50;4.38;;;0.60;;
73642;SDS011;61938;48.652;9.292;2023-11-19T10:20:16;5.13;;;0.70;;
73642;SDS011;61938;48.652;9.292;2023-11-19T10:22:41;0.60;;;0.40;;
73642;SDS011;61938;48.652;9.292;2023-11-19T10:25:26;1.75;;;0.70;;
73642;SDS011;61938;48.652;9.292;2023-11-19T10:27:52;5.70;;;0.70;;
73642;SDS011;61938;48.652;9.292;2023-11-19T10:30:21;2.75;;;0.63;;
73642;SDS011;61938;48.652;9.292;2023-11-19T10:33:10;1.30;;;0.50;;
73642;SDS011;61938;48.652;9.292;2023-11-19T10:35:55;1.58;;;0.57;;
73642;SDS011;61938;48.652;9.292;2023-11-19T10:38:22;1.35;;;0.75;;
73642;SDS011;61938;48.652;9.292;2023-11-19T10:40:49;2.17;;;0.80;;
73642;SDS011;61938;48.652;9.292;2023-11-19T10:43:19;1.88;;;0.82;;
73642;SDS011;61938;48.652;9.292;2023-11-19T10:45:47;1.23;;;0.80;;
73642;SDS011;61938;48.652;9.292;2023-11-19T10:48:13;3.85;;;1.10;;
73642;SDS011;61938;48.652;9.292;2023-11-19T10:50:39;2.67;;;1.20;;
73642;SDS011;61938;48.652;9.292;2023-11-19T10:53:07;2.22;;;0.95;;
73642;SDS011;61938;48.652;9.292;2023-11-19T10:55:34;2.10;;;0.95;;
73642;SDS011;61938;48.652;9.292;2023-11-19T10:58:03;1.50;;;0.80;;
73642;SDS011;61938;48.652;9.292;2023-11-19T11:03:20;1.73;;;0.80;;
73642;SDS011;61938;48.652;9.292;2023-11-19T11:05:50;1.00;;;0.60;;
73642;SDS011;61938;48.652;9.292;2023-11-19T11:08:17;1.45;;;0.50;;
73642;SDS011;61938;48.652;9.292;2023-11-19T11:10:52;0.63;;;0.28;;
73642;SDS011;61938;48.652;9.292;2023-11-19T11:13:18;0.73;;;0.40;;
73642;SDS011;61938;48.652;9.292;2023-11-19T11:15:44;0.80;;;0.50;;
73642;SDS011;61938;48.652;9.292;2023-11-19T11:18:11;0.88;;;0.50;;
73642;SDS011;61938;48.652;9.292;2023-11-19T11:20:38;2.97;;;0.70;;
73642;SDS011;61938;48.652;9.292;2023-11-19T11:23:17;3.10;;;0.60;;
73642;SDS011;61938;48.652;9.292;2023-11-19T11:29:00;4.68;;;0.47;;
73642;SDS011;61938;48.652;9.292;2023-11-19T11:34:44;5.70;;;0.95;;
73642;SDS011;61938;48.652;9.292;2023-11-19T11:39:57;1.15;;;0.75;;
73642;SDS011;61938;48.652;9.292;2023-11-19T11:50:07;6.25;;;1.15;;
73642;SDS011;61938;48.652;9.292;2023-11-19T11:53:12;4.07;;;1.23;;
73642;SDS011;61938;48.652;9.292;2023-11-19T11:55:26;2.15;;;1.10;;
73642;SDS011;61938;48.652;9.292;2023-11-19T11:58:02;1.83;;;1.00;;
73642;SDS011;61938;48.652;9.292;2023-11-19T12:00:31;1.25;;;0.73;;
73642;SDS011;61938;48.652;9.292;2023-11-19T12:03:01;1.08;;;0.68;;
73642;SDS011;61938;48.652;9.292;2023-11-19T12:05:29;1.45;;;0.88;;
73642;SDS011;61938;48.652;9.292;2023-11-19T12:07:55;2.20;;;0.85;;
73642;SDS011;61938;48.652;9.292;2023-11-19T12:10:29;3.42;;;1.08;;
73642;SDS011;61938;48.652;9.292;2023-11-19T12:12:59;2.28;;;0.82;;
73642;SDS011;61938;48.652;9.292;2023-11-19T12:15:25;2.75;;;0.70;;
73642;SDS011;61938;48.652;9.292;2023-11-19T12:17:52;1.77;;;0.82;;
73642;SDS011;61938;48.652;9.292;2023-11-19T12:20:20;1.58;;;0.47;;
73642;SDS011;61938;48.652;9.292;2023-11-19T12:22:47;2.47;;;0.93;;
73642;SDS011;61938;48.652;9.292;2023-11-19T12:25:14;3.95;;;0.55;;
73642;SDS011;61938;48.652;9.292;2023-11-19T12:27:45;2.83;;;0.80;;
73642;SDS011;61938;48.652;9.292;2023-11-19T12:30:14;1.42;;;0.93;;
73642;SDS011;61938;48.652;9.292;2023-11-19T12:32:43;2.17;;;0.93;;
73642;SDS011;61938;48.652;9.292;2023-11-19T12:35:10;3.13;;;0.90;;
73642;SDS011;61938;48.652;9.292;2023-11-19T12:37:40;1.45;;;0.80;;
73642;SDS011;61938;48.652;9.292;2023-11-19T12:40:25;1.23;;;0.50;;
73642;SDS011;61938;48.652;9.292;2023-11-19T12:42:51;2.90;;;0.63;;
73642;SDS011;61938;48.652;9.292;2023-11-19T12:45:24;1.33;;;0.60;;
73642;SDS011;61938;48.652;9.292;2023-11-19T12:48:05;0.80;;;0.60;;
73642;SDS011;61938;48.652;9.292;2023-11-19T12:50:51;4.50;;;0.60;;
73642;SDS011;61938;48.652;9.292;2023-11-19T12:53:17;1.25;;;0.45;;
73642;SDS011;61938;48.652;9.292;2023-11-19T12:55:43;0.82;;;0.52;;
73642;SDS011;61938;48.652;9.292;2023-11-19T12:58:09;2.50;;;0.50;;
73642;SDS011;61938;48.652;9.292;2023-11-19T13:00:34;1.40;;;0.30;;
73642;SDS011;61938;48.652;9.292;2023-11-19T13:03:00;0.40;;;0.30;;
73642;SDS011;61938;48.652;9.292;2023-11-19T13:05:29;6.75;;;1.30;;
73642;SDS011;61938;48.652;9.292;2023-11-19T13:08:02;0.60;;;0.50;;
73642;SDS011;61938;48.652;9.292;2023-11-19T13:10:30;3.83;;;0.70;;
73642;SDS011;61938;48.652;9.292;2023-11-19T13:13:16;0.65;;;0.30;;
73642;SDS011;61938;48.652;9.292;2023-11-19T13:15:42;0.57;;;0.40;;
73642;SDS011;61938;48.652;9.292;2023-11-19T13:18:09;1.00;;;0.65;;
73642;SDS011;61938;48.652;9.292;2023-11-19T13:20:35;7.68;;;0.95;;
73642;SDS011;61938;48.652;9.292;2023-11-19T13:23:02;2.95;;;0.80;;
73642;SDS011;61938;48.652;9.292;2023-11-19T13:25:29;1.48;;;0.77;;
73642;SDS011;61938;48.652;9.292;2023-11-19T13:27:55;4.45;;;1.30;;
73642;SDS011;61938;48.652;9.292;2023-11-19T13:30:21;3.65;;;0.90;;
73642;SDS011;61938;48.652;9.292;2023-11-19T13:32:48;2.85;;;0.93;;
73642;SDS011;61938;48.652;9.292;2023-11-19T13:35:14;1.63;;;0.70;;
73642;SDS011;61938;48.652;9.292;2023-11-19T13:37:40;2.05;;;0.93;;
73642;SDS011;61938;48.652;9.292;2023-11-19T13:40:06;2.55;;;0.80;;
73642;SDS011;61938;48.652;9.292;2023-11-19T13:42:32;3.45;;;1.10;;
73642;SDS011;61938;48.652;9.292;2023-11-19T13:44:58;1.75;;;0.82;;
73642;SDS011;61938;48.652;9.292;2023-11-19T13:47:23;2.97;;;1.00;;
73642;SDS011;61938;48.652;9.292;2023-11-19T13:49:49;6.20;;;1.10;;
73642;SDS011;61938;48.652;9.292;2023-11-19T13:52:15;3.17;;;0.90;;
73642;SDS011;61938;48.652;9.292;2023-11-19T13:54:40;4.82;;;1.20;;
73642;SDS011;61938;48.652;9.292;2023-11-19T13:57:06;1.92;;;1.00;;
73642;SDS011;61938;48.652;9.292;2023-11-19T13:59:31;1.48;;;0.75;;
73642;SDS011;61938;48.652;9.292;2023-11-19T14:01:59;1.90;;;0.98;;
73642;SDS011;61938;48.652;9.292;2023-11-19T14:04:25;2.90;;;0.63;;
73642;SDS011;61938;48.652;9.292;2023-11-19T14:06:51;3.25;;;0.90;;
73642;SDS011;61938;48.652;9.292;2023-11-19T14:09:16;2.67;;;0.93;;
73642;SDS011;61938;48.652;9.292;2023-11-19T14:11:42;2.22;;;0.90;;
73642;SDS011;61938;48.652;9.292;2023-11-19T14:14:08;2.53;;;1.30;;
73642;SDS011;61938;48.652;9.292;2023-11-19T14:16:34;2.13;;;0.90;;
73642;SDS011;61938;48.652;9.292;2023-11-19T14:19:00;3.75;;;1.13;;
73642;SDS011;61938;48.652;9.292;2023-11-19T14:21:25;2.38;;;1.08;;
73642;SDS011;61938;48.652;9.292;2023-11-19T14:23:51;1.60;;;0.77;;
73642;SDS011;61938;48.652;9.292;2023-11-19T14:26:17;4.50;;;0.90;;
73642;SDS011;61938;48.652;9.292;2023-11-19T14:28:43;3.08;;;0.77;;
73642;SDS011;61938;48.652;9.292;2023-11-19T14:31:08;4.10;;;0.85;;
73642;SDS011;61938;48.652;9.292;2023-11-19T14:33:34;3.40;;;0.98;;
73642;SDS011;61938;48.652;9.292;2023-11-19T14:36:00;3.25;;;0.88;;
73642;SDS011;61938;48.652;9.292;2023-11-19T14:38:26;2.83;;;1.00;;
73642;SDS011;61938;48.652;9.292;2023-11-19T14:40:52;1.10;;;0.70;;
73642;SDS011;61938;48.652;9.292;2023-11-19T14:43:17;1.17;;;0.80;;
73642;SDS011;61938;48.652;9.292;2023-11-19T14:45:43;2.15;;;0.57;;
73642;SDS011;61938;48.652;9.292;2023-11-19T14:48:08;2.88;;;1.17;;
73642;SDS011;61938;48.652;9.292;2023-11-19T14:50:35;2.97;;;0.90;;
73642;SDS011;61938;48.652;9.292;2023-11-19T14:53:00;3.45;;;1.27;;
73642;SDS011;61938;48.652;9.292;2023-11-19T14:55:26;4.43;;;1.23;;
73642;SDS011;61938;48.652;9.292;2023-11-19T14:57:51;3.72;;;0.95;;
73642;SDS011;61938;48.652;9.292;2023-11-19T15:00:17;2.25;;;0.90;;
73642;SDS011;61938;48.652;9.292;2023-11-19T15:02:43;2.35;;;0.90;;
73642;SDS011;61938;48.652;9.292;2023-11-19T15:05:08;2.35;;;0.90;;
73642;SDS011;61938;48.652;9.292;2023-11-19T15:07:35;4.55;;;1.98;;
73642;SDS011;61938;48.652;9.292;2023-11-19T15:10:05;8.77;;;3.88;;